Time;durP1;ratioP1;P1;durP2;ratioP2;P2;SDS_P1;SDS_P2;PMS_P1;PMS_P2;Temp;Humidity;BMP_temperature;BMP_pressure;BME280_temperature;BME280_humidity;BME280_pressure;Samples;Min_cycle;Max_cycle;Signal;HPM_P1;HPM_P2
2021/11/13 00:02:14;;;;;;;74.03;23.35;;;2.80;99.90;;;;;;5005328;28;20041;-69
2021/11/13 00:04:40;;;;;;;75.10;23.35;;;2.70;99.90;;;;;;4999991;28;20138;-69
2021/11/13 00:07:05;;;;;;;76.53;23.83;;;2.70;99.90;;;;;;5064713;28;20044;-69
2021/11/13 00:09:31;;;;;;;64.03;23.02;;;2.60;99.90;;;;;;5005575;28;20144;-69
2021/11/13 00:11:56;;;;;;;64.78;23.70;;;2.60;99.90;;;;;;5011545;28;20018;-69
2021/11/13 00:14:22;;;;;;;74.93;25.05;;;2.80;99.90;;;;;;5015951;28;20472;-69
2021/11/13 00:16:47;;;;;;;69.43;23.92;;;2.80;99.90;;;;;;5016895;28;20117;-69
2021/11/13 00:19:13;;;;;;;69.70;22.65;;;2.80;99.90;;;;;;5008174;28;20037;-69
2021/11/13 00:21:38;;;;;;;72.90;24.38;;;2.80;99.90;;;;;;5006391;28;20100;-69
2021/11/13 00:24:04;;;;;;;64.70;23.52;;;2.70;99.90;;;;;;5001714;28;20099;-69
2021/11/13 00:26:32;;;;;;;64.45;22.73;;;2.70;99.90;;;;;;5002947;28;20766;-69
2021/11/13 00:28:58;;;;;;;63.58;22.35;;;2.80;99.90;;;;;;5007574;28;20457;-69
2021/11/13 00:31:24;;;;;;;63.55;23.00;;;2.80;99.90;;;;;;5012483;28;20041;-69
2021/11/13 00:33:49;;;;;;;61.13;22.15;;;2.80;99.90;;;;;;5016901;28;20033;-69
2021/11/13 00:36:14;;;;;;;55.88;21.83;;;2.80;99.90;;;;;;5012453;28;20030;-69
2021/11/13 00:38:40;;;;;;;69.35;23.05;;;2.80;99.90;;;;;;5006848;28;20212;-70
2021/11/13 00:41:08;;;;;;;64.72;23.38;;;2.90;99.90;;;;;;5001978;28;20097;-69
2021/11/13 00:43:34;;;;;;;65.68;23.48;;;2.90;99.90;;;;;;4998597;28;20025;-69
2021/11/13 00:46:00;;;;;;;67.45;24.88;;;2.90;99.90;;;;;;5002947;28;20026;-70
2021/11/13 00:48:25;;;;;;;68.35;23.67;;;2.90;99.90;;;;;;5010318;28;20789;-70
2021/11/13 00:50:51;;;;;;;68.05;24.00;;;2.80;99.90;;;;;;5050416;28;20038;-70
2021/11/13 00:53:16;;;;;;;89.88;25.30;;;2.80;99.90;;;;;;5001115;28;20030;-70
2021/11/13 00:55:42;;;;;;;74.30;26.92;;;2.80;99.90;;;;;;5005764;28;20033;-70
2021/11/13 00:58:07;;;;;;;72.40;25.05;;;3.00;99.90;;;;;;5010400;28;20873;-69
2021/11/13 01:00:34;;;;;;;68.22;24.08;;;3.00;99.90;;;;;;5006870;28;20153;-70
2021/11/13 01:02:59;;;;;;;82.45;27.02;;;3.00;99.90;;;;;;5001735;28;20827;-70
2021/11/13 01:05:25;;;;;;;68.88;26.15;;;3.00;99.90;;;;;;5074649;28;20047;-70
2021/11/13 01:07:50;;;;;;;70.68;26.58;;;3.00;99.90;;;;;;5011418;28;20080;-70
2021/11/13 01:10:18;;;;;;;77.93;27.00;;;3.00;99.90;;;;;;5016358;28;20033;-70
2021/11/13 01:12:46;;;;;;;71.53;25.95;;;3.00;99.90;;;;;;5012776;28;20064;-70
2021/11/13 01:15:12;;;;;;;73.43;26.10;;;3.10;99.90;;;;;;5006619;28;20068;-69
2021/11/13 01:17:37;;;;;;;86.22;28.08;;;3.10;99.90;;;;;;5001713;28;20109;-69
2021/11/13 01:20:03;;;;;;;79.30;27.13;;;3.10;99.90;;;;;;4998149;28;20025;-69
2021/11/13 01:22:28;;;;;;;75.70;26.58;;;3.10;99.90;;;;;;5002969;28;20156;-70
2021/11/13 01:24:54;;;;;;;84.40;28.30;;;3.10;99.90;;;;;;5009848;28;20059;-70
2021/11/13 01:27:19;;;;;;;76.60;26.33;;;3.10;99.90;;;;;;5011252;28;20037;-70
2021/11/13 01:29:45;;;;;;;73.45;25.02;;;3.10;99.90;;;;;;5014885;28;20838;-70
2021/11/13 01:32:10;;;;;;;78.20;27.27;;;3.10;99.90;;;;;;5002261;28;20034;-70
2021/11/13 01:34:39;;;;;;;74.53;26.85;;;3.10;99.90;;;;;;5006299;28;20053;-70
2021/11/13 01:37:04;;;;;;;79.00;28.17;;;3.20;99.90;;;;;;5064514;28;20596;-70
2021/11/13 01:39:30;;;;;;;89.07;31.05;;;3.20;99.90;;;;;;5000573;28;20034;-70
2021/11/13 01:41:55;;;;;;;81.93;28.50;;;3.10;99.90;;;;;;5073382;28;20039;-70
2021/11/13 01:44:21;;;;;;;80.28;28.70;;;3.20;99.90;;;;;;5011815;28;20070;-70
2021/11/13 01:46:46;;;;;;;88.93;29.83;;;3.10;99.90;;;;;;5015535;28;20037;-70
2021/11/13 01:49:12;;;;;;;89.88;30.70;;;3.10;99.90;;;;;;5012200;28;20046;-70
2021/11/13 01:51:37;;;;;;;82.63;29.17;;;3.10;99.90;;;;;;5006237;28;20044;-70
2021/11/13 01:54:07;;;;;;;88.53;29.30;;;3.00;99.90;;;;;;5001888;28;20036;-70
2021/11/13 01:56:33;;;;;;;88.85;29.08;;;3.10;99.90;;;;;;4998935;28;20109;-70
2021/11/13 01:59:01;;;;;;;91.68;31.58;;;3.00;99.90;;;;;;4999747;28;20219;-70
2021/11/13 02:01:26;;;;;;;92.07;30.25;;;3.10;99.90;;;;;;5009428;28;20639;-70
2021/11/13 02:03:51;;;;;;;93.57;29.75;;;3.10;99.90;;;;;;5070208;28;20511;-70
2021/11/13 02:06:17;;;;;;;87.70;30.70;;;3.10;99.90;;;;;;5067797;28;20038;-70
2021/11/13 02:08:46;;;;;;;91.78;30.85;;;3.00;99.90;;;;;;5005885;28;20033;-70
2021/11/13 02:11:11;;;;;;;90.53;31.38;;;2.90;99.90;;;;;;5004087;28;20072;-70
2021/11/13 02:13:37;;;;;;;93.55;30.20;;;2.90;99.90;;;;;;4999988;28;20058;-71
2021/11/13 02:16:02;;;;;;;97.28;32.22;;;2.90;99.90;;;;;;5001422;28;20032;-70
2021/11/13 02:18:28;;;;;;;96.80;32.75;;;2.80;99.90;;;;;;5004938;28;20021;-70
2021/11/13 02:20:53;;;;;;;94.57;31.00;;;2.80;99.90;;;;;;5011258;28;20769;-70
2021/11/13 02:23:19;;;;;;;101.85;34.03;;;2.70;99.90;;;;;;5014006;28;20037;-70
2021/11/13 02:25:44;;;;;;;100.00;33.03;;;2.80;99.90;;;;;;5078922;28;20599;-69
2021/11/13 02:28:10;;;;;;;88.47;31.88;;;2.70;99.90;;;;;;5006422;28;20041;-69
2021/11/13 02:30:35;;;;;;;100.82;33.35;;;2.80;99.90;;;;;;4999860;28;20117;-69
2021/11/13 02:33:01;;;;;;;94.00;31.95;;;2.70;99.90;;;;;;4997045;28;20037;-69
2021/11/13 02:35:26;;;;;;;100.43;31.33;;;2.70;99.90;;;;;;5001439;28;20065;-69
2021/11/13 02:37:52;;;;;;;97.20;33.22;;;2.80;99.90;;;;;;5074092;28;20068;-69
2021/11/13 02:40:17;;;;;;;96.07;32.00;;;2.80;99.90;;;;;;5011574;28;20131;-70
2021/11/13 02:42:43;;;;;;;104.93;32.92;;;2.70;99.90;;;;;;5013031;28;20713;-69
2021/11/13 02:45:09;;;;;;;98.10;32.72;;;2.70;99.90;;;;;;5009186;28;20472;-70
2021/11/13 02:47:35;;;;;;;106.28;33.65;;;2.60;99.90;;;;;;5003117;28;20548;-70
2021/11/13 02:50:00;;;;;;;99.57;34.50;;;2.60;99.90;;;;;;4998079;28;20060;-69
2021/11/13 02:52:26;;;;;;;107.28;34.55;;;2.60;99.90;;;;;;4998523;28;20057;-70
2021/11/13 02:54:53;;;;;;;111.32;34.08;;;2.60;99.90;;;;;;5071281;28;20030;-69
2021/11/13 02:57:19;;;;;;;109.72;35.17;;;2.60;99.90;;;;;;5000960;28;20041;-69
2021/11/13 02:59:44;;;;;;;97.93;33.83;;;2.60;99.90;;;;;;4996132;28;20535;-69
2021/11/13 03:02:09;;;;;;;117.38;34.83;;;2.50;99.90;;;;;;4999283;28;20041;-69
2021/11/13 03:04:35;;;;;;;106.35;34.92;;;2.60;99.90;;;;;;5005161;28;20033;-70
2021/11/13 03:07:00;;;;;;;118.95;36.55;;;3.20;99.90;;;;;;5009272;28;20033;-69
2021/11/13 03:09:26;;;;;;;114.07;36.33;;;2.70;99.90;;;;;;5007295;28;20480;-69
2021/11/13 03:11:51;;;;;;;111.53;36.20;;;2.70;99.90;;;;;;5000968;28;20030;-70
2021/11/13 03:14:17;;;;;;;106.40;34.38;;;2.70;99.90;;;;;;5006281;28;20043;-70
2021/11/13 03:16:42;;;;;;;108.13;33.92;;;2.60;99.90;;;;;;5011725;28;20033;-70
2021/11/13 03:19:08;;;;;;;109.93;34.58;;;2.70;99.90;;;;;;5080555;28;20116;-70
2021/11/13 03:21:33;;;;;;;108.15;36.60;;;2.70;99.90;;;;;;5009067;28;20034;-70
2021/11/13 03:23:59;;;;;;;105.28;34.53;;;2.70;99.90;;;;;;5003968;28;20072;-70
2021/11/13 03:26:24;;;;;;;107.40;34.92;;;2.60;99.90;;;;;;4997514;28;20667;-70
2021/11/13 03:28:52;;;;;;;112.93;33.90;;;2.60;99.90;;;;;;4997500;28;20034;-69
2021/11/13 03:31:18;;;;;;;101.55;33.72;;;3.60;99.90;;;;;;5004652;28;20034;-69
2021/11/13 03:33:44;;;;;;;102.22;35.22;;;2.60;99.90;;;;;;5001564;28;20552;-70
2021/11/13 03:36:09;;;;;;;108.45;35.30;;;2.60;99.90;;;;;;4997394;28;20032;-70
2021/11/13 03:38:34;;;;;;;106.32;34.10;;;2.50;99.90;;;;;;4999051;28;20152;-70
2021/11/13 03:41:00;;;;;;;97.28;35.45;;;2.50;99.90;;;;;;5004685;28;20042;-70
2021/11/13 03:43:25;;;;;;;96.32;31.80;;;2.60;99.90;;;;;;5011510;28;20136;-70
2021/11/13 03:45:51;;;;;;;103.85;33.33;;;2.60;99.90;;;;;;5017460;28;20053;-70
2021/11/13 03:48:16;;;;;;;101.65;33.10;;;2.60;99.90;;;;;;5003923;28;20026;-70
2021/11/13 03:50:42;;;;;;;104.32;34.17;;;2.70;99.90;;;;;;5006638;28;20784;-70
2021/11/13 03:53:07;;;;;;;104.78;33.90;;;1.70;99.90;;;;;;5014310;28;20033;-70
2021/11/13 03:55:33;;;;;;;96.38;33.22;;;2.70;99.90;;;;;;5016008;28;20060;-70
2021/11/13 03:57:58;;;;;;;89.70;31.52;;;2.80;99.90;;;;;;5011617;28;20039;-69
2021/11/13 04:00:25;;;;;;;100.70;32.78;;;2.70;99.90;;;;;;5058584;28;20045;-70
2021/11/13 04:02:50;;;;;;;98.15;33.85;;;2.80;99.90;;;;;;5001220;28;20049;-70
2021/11/13 04:05:16;;;;;;;97.00;31.50;;;2.80;99.90;;;;;;5001113;28;20045;-70
2021/11/13 04:07:41;;;;;;;107.70;31.02;;;2.70;99.90;;;;;;5006247;28;20086;-70
2021/11/13 04:10:07;;;;;;;96.82;32.30;;;2.80;99.90;;;;;;5011229;28;20033;-69
2021/11/13 04:12:32;;;;;;;93.78;32.22;;;2.80;99.90;;;;;;5085105;28;20708;-70
2021/11/13 04:14:58;;;;;;;93.43;30.75;;;2.70;99.90;;;;;;5015893;28;20042;-70
2021/11/13 04:17:23;;;;;;;93.32;30.73;;;2.80;99.90;;;;;;5009129;28;20040;-70
2021/11/13 04:19:48;;;;;;;90.68;30.50;;;2.80;99.90;;;;;;5005131;28;20401;-70
2021/11/13 04:22:14;;;;;;;85.68;30.35;;;2.90;99.90;;;;;;5000274;28;20033;-70
2021/11/13 04:24:39;;;;;;;85.93;30.35;;;2.80;99.90;;;;;;5003512;28;20026;-70
2021/11/13 04:27:05;;;;;;;78.90;27.83;;;2.80;99.90;;;;;;5008381;28;20038;-70
2021/11/13 04:29:31;;;;;;;87.05;28.63;;;2.80;99.90;;;;;;5013124;28;20406;-70
2021/11/13 04:31:59;;;;;;;79.95;29.13;;;2.80;99.90;;;;;;4996464;28;20111;-70
2021/11/13 04:34:26;;;;;;;81.63;28.10;;;2.80;99.90;;;;;;5004273;28;20034;-70
2021/11/13 04:36:54;;;;;;;83.63;28.23;;;2.80;99.90;;;;;;5077573;28;20036;-70
2021/11/13 04:39:20;;;;;;;86.47;30.15;;;2.90;99.90;;;;;;5015161;28;20509;-70
2021/11/13 04:41:45;;;;;;;74.22;27.20;;;2.90;99.90;;;;;;5015888;28;20045;-70
2021/11/13 04:44:11;;;;;;;77.13;28.48;;;3.00;99.90;;;;;;5079254;28;20815;-70
2021/11/13 04:46:36;;;;;;;79.15;29.27;;;3.10;99.90;;;;;;5005572;28;20577;-70
2021/11/13 04:49:02;;;;;;;86.80;29.30;;;3.10;99.90;;;;;;5068092;28;20041;-70
2021/11/13 04:51:27;;;;;;;77.40;26.45;;;3.10;99.90;;;;;;5002257;28;20061;-70
2021/11/13 04:53:53;;;;;;;70.88;26.40;;;3.20;99.90;;;;;;5005990;28;20041;-70
2021/11/13 04:56:18;;;;;;;69.40;25.20;;;3.40;99.90;;;;;;5012348;28;20034;-70
2021/11/13 04:58:44;;;;;;;69.93;25.80;;;3.10;99.90;;;;;;5015930;28;20033;-70
2021/11/13 05:01:09;;;;;;;79.47;27.75;;;3.10;99.90;;;;;;4999210;28;20642;-70
2021/11/13 05:03:35;;;;;;;67.65;25.80;;;3.00;99.90;;;;;;5006707;28;20038;-70
2021/11/13 05:06:00;;;;;;;73.32;26.10;;;3.00;99.90;;;;;;5002621;28;20022;-70
2021/11/13 05:08:26;;;;;;;72.40;26.55;;;3.00;99.90;;;;;;4998457;28;20117;-70
2021/11/13 05:10:51;;;;;;;66.60;25.60;;;3.00;99.90;;;;;;5070701;28;20059;-69
2021/11/13 05:13:17;;;;;;;74.03;26.48;;;2.90;99.90;;;;;;5007376;28;20097;-69
2021/11/13 05:15:42;;;;;;;69.22;25.20;;;2.80;99.90;;;;;;5001923;28;20036;-70
2021/11/13 05:18:08;;;;;;;72.07;26.23;;;2.90;99.90;;;;;;4998592;28;20533;-70
2021/11/13 05:20:33;;;;;;;65.60;25.15;;;2.90;99.90;;;;;;5003728;28;20029;-70
2021/11/13 05:22:59;;;;;;;65.75;24.13;;;2.90;99.90;;;;;;5002475;28;20673;-70
2021/11/13 05:25:24;;;;;;;72.45;27.05;;;2.80;99.90;;;;;;5080392;28;20044;-70
2021/11/13 05:27:50;;;;;;;75.40;29.63;;;2.80;99.90;;;;;;5014567;28;20150;-70
2021/11/13 05:30:15;;;;;;;77.57;29.73;;;2.80;99.90;;;;;;5009038;28;20075;-70
2021/11/13 05:32:41;;;;;;;72.10;28.40;;;2.80;99.90;;;;;;5010673;28;20599;-70
2021/11/13 05:35:06;;;;;;;78.13;29.52;;;2.80;99.90;;;;;;5083178;28;20033;-70
2021/11/13 05:37:32;;;;;;;75.47;30.50;;;2.90;99.90;;;;;;5059485;28;20037;-70
2021/11/13 05:39:57;;;;;;;89.05;35.42;;;2.80;99.90;;;;;;5074695;28;20067;-70
2021/11/13 05:42:24;;;;;;;75.47;30.00;;;2.80;99.90;;;;;;5009449;28;20033;-70
2021/11/13 05:44:49;;;;;;;91.78;34.53;;;2.90;99.90;;;;;;5014117;28;20029;-70
2021/11/13 05:47:15;;;;;;;79.68;30.48;;;3.00;99.90;;;;;;5011062;28;20136;-70
2021/11/13 05:49:40;;;;;;;73.90;28.75;;;2.90;99.90;;;;;;5075336;28;20033;-70
2021/11/13 05:52:06;;;;;;;65.28;26.80;;;2.90;99.90;;;;;;5011842;28;20037;-70
2021/11/13 05:54:31;;;;;;;64.50;24.63;;;3.00;99.90;;;;;;5001730;28;20694;-70
2021/11/13 05:56:57;;;;;;;67.13;24.40;;;3.00;99.90;;;;;;5011684;28;20129;-70
2021/11/13 05:59:22;;;;;;;66.28;25.13;;;3.00;99.90;;;;;;5011071;28;20036;-70
2021/11/13 06:01:48;;;;;;;73.68;27.40;;;3.00;99.90;;;;;;5015395;28;20788;-70
2021/11/13 06:04:13;;;;;;;75.90;28.65;;;3.00;99.90;;;;;;5011807;28;20037;-70
2021/11/13 06:06:39;;;;;;;81.47;29.30;;;3.10;99.90;;;;;;5007229;28;20038;-70
2021/11/13 06:09:04;;;;;;;67.88;26.67;;;3.10;99.90;;;;;;5004069;28;20036;-70
2021/11/13 06:11:30;;;;;;;61.47;23.83;;;3.00;99.90;;;;;;5006560;28;20117;-70
2021/11/13 06:13:55;;;;;;;57.63;23.55;;;3.00;99.90;;;;;;5005288;28;20066;-70
2021/11/13 06:16:21;;;;;;;62.20;23.25;;;3.00;99.90;;;;;;5006058;28;20129;-70
2021/11/13 06:18:46;;;;;;;61.03;24.02;;;3.00;99.90;;;;;;5010554;28;20841;-71
2021/11/13 06:21:12;;;;;;;62.92;22.75;;;3.00;99.90;;;;;;5013756;28;20055;-71
2021/11/13 06:23:37;;;;;;;61.60;22.77;;;3.00;99.90;;;;;;5010128;28;20901;-70
2021/11/13 06:26:03;;;;;;;55.75;21.60;;;2.90;99.90;;;;;;5008058;28;20037;-70
2021/11/13 06:28:28;;;;;;;60.28;21.95;;;2.90;99.90;;;;;;5005222;28;20055;-70
2021/11/13 06:30:54;;;;;;;66.72;24.35;;;2.90;99.90;;;;;;5075867;28;20116;-70
2021/11/13 06:33:19;;;;;;;55.78;21.70;;;3.00;99.90;;;;;;5008386;28;20026;-70
2021/11/13 06:35:48;;;;;;;64.07;25.05;;;2.90;99.90;;;;;;5006766;28;20796;-70
2021/11/13 06:38:15;;;;;;;55.63;21.80;;;2.90;99.90;;;;;;5010829;28;20136;-70
2021/11/13 06:40:40;;;;;;;62.67;23.48;;;3.00;99.90;;;;;;5006811;28;20713;-70
2021/11/13 06:43:06;;;;;;;67.47;22.25;;;3.00;99.90;;;;;;5009064;28;20048;-70
2021/11/13 06:45:31;;;;;;;65.35;22.77;;;3.00;99.90;;;;;;5076152;28;20049;-70
2021/11/13 06:47:57;;;;;;;67.25;24.23;;;3.10;99.90;;;;;;5009415;28;20714;-69
2021/11/13 06:50:22;;;;;;;64.22;23.67;;;3.20;99.90;;;;;;5013789;28;20181;-70
2021/11/13 06:52:48;;;;;;;62.25;22.40;;;3.20;99.90;;;;;;5004689;28;20038;-70
2021/11/13 06:55:13;;;;;;;62.40;22.90;;;3.20;99.90;;;;;;5007476;28;20022;-70
2021/11/13 06:57:39;;;;;;;66.05;23.33;;;3.20;99.90;;;;;;5003660;28;20038;-70
2021/11/13 07:00:04;;;;;;;56.15;23.00;;;3.20;99.90;;;;;;5008248;28;20678;-69
2021/11/13 07:02:30;;;;;;;57.28;21.75;;;3.20;99.90;;;;;;5013608;28;20434;-70
2021/11/13 07:04:55;;;;;;;55.47;22.00;;;3.20;99.90;;;;;;5010114;28;20033;-69
2021/11/13 07:07:21;;;;;;;62.55;22.40;;;3.30;99.90;;;;;;5006690;28;20128;-67
2021/11/13 07:09:47;;;;;;;55.17;22.40;;;3.30;99.90;;;;;;5006417;28;20050;-67
2021/11/13 07:12:12;;;;;;;61.25;22.83;;;3.30;99.90;;;;;;5006362;28;20042;-67
2021/11/13 07:14:37;;;;;;;61.88;22.55;;;3.30;99.90;;;;;;5002046;28;20034;-67
2021/11/13 07:17:03;;;;;;;58.50;22.90;;;3.30;99.90;;;;;;5002712;28;20513;-68
2021/11/13 07:19:28;;;;;;;58.92;23.33;;;3.40;99.90;;;;;;5011281;28;20504;-67
2021/11/13 07:21:54;;;;;;;55.05;21.13;;;3.40;99.90;;;;;;5014551;28;20146;-70
2021/11/13 07:24:19;;;;;;;54.40;20.92;;;3.40;99.90;;;;;;5014079;28;20050;-68
2021/11/13 07:26:51;;;;;;;53.10;21.58;;;3.40;99.90;;;;;;5012501;28;20029;-68
2021/11/13 07:29:17;;;;;;;58.28;22.17;;;3.40;99.90;;;;;;5071606;28;20140;-68
2021/11/13 07:31:42;;;;;;;54.53;22.38;;;3.40;99.90;;;;;;5074272;28;20056;-68
2021/11/13 07:34:08;;;;;;;56.97;21.55;;;3.40;99.90;;;;;;5007210;28;20033;-68
2021/11/13 07:36:33;;;;;;;54.33;22.63;;;3.50;99.90;;;;;;5007524;28;20558;-67
2021/11/13 07:38:59;;;;;;;51.42;21.23;;;3.60;99.90;;;;;;5012062;28;20044;-67
2021/11/13 07:41:24;;;;;;;54.53;21.25;;;3.60;99.90;;;;;;5012279;28;20074;-69
2021/11/13 07:43:50;;;;;;;49.67;20.92;;;3.70;99.90;;;;;;5005209;28;20525;-69
2021/11/13 07:46:16;;;;;;;44.85;18.85;;;3.70;99.90;;;;;;5014699;28;20485;-69
2021/11/13 07:48:41;;;;;;;48.70;19.70;;;3.70;99.90;;;;;;5012435;28;20029;-69
2021/11/13 07:51:08;;;;;;;48.35;19.35;;;3.70;99.90;;;;;;5003936;28;20034;-69
2021/11/13 07:53:33;;;;;;;39.80;18.30;;;3.80;99.90;;;;;;5015881;28;20608;-69
2021/11/13 07:55:59;;;;;;;44.03;18.00;;;3.90;99.90;;;;;;5080493;28;20042;-69
2021/11/13 07:58:24;;;;;;;45.13;18.88;;;4.10;99.90;;;;;;5012325;28;20063;-69
2021/11/13 08:00:50;;;;;;;46.03;19.10;;;4.10;99.90;;;;;;5007790;28;20037;-68
2021/11/13 08:03:15;;;;;;;84.75;33.72;;;4.10;99.90;;;;;;5007510;28;20572;-69
2021/11/13 08:05:41;;;;;;;46.90;19.52;;;4.10;99.90;;;;;;5012099;28;20040;-68
2021/11/13 08:08:06;;;;;;;42.65;18.27;;;4.20;99.90;;;;;;5005002;28;20102;-70
2021/11/13 08:10:36;;;;;;;39.33;18.50;;;4.20;99.90;;;;;;5016578;28;20033;-69
2021/11/13 08:13:01;;;;;;;37.95;17.23;;;4.20;99.90;;;;;;5003775;28;20045;-69
2021/11/13 08:15:27;;;;;;;40.22;17.63;;;4.10;99.90;;;;;;5007057;28;20029;-69
2021/11/13 08:17:52;;;;;;;38.53;17.70;;;4.20;99.90;;;;;;5007952;28;20116;-69
2021/11/13 08:20:19;;;;;;;48.58;17.52;;;4.30;99.90;;;;;;5016541;28;20045;-69
2021/11/13 08:22:44;;;;;;;39.90;17.25;;;4.30;99.90;;;;;;5017414;28;20425;-69
2021/11/13 08:25:10;;;;;;;35.25;16.98;;;4.20;99.90;;;;;;5071127;22;20382;-70
2021/11/13 08:27:35;;;;;;;41.97;17.35;;;4.30;99.90;;;;;;5059008;28;20090;-70
2021/11/13 08:30:01;;;;;;;42.53;17.15;;;4.40;99.90;;;;;;5041307;28;20083;-70
2021/11/13 08:32:26;;;;;;;36.00;16.52;;;4.50;99.90;;;;;;5059762;28;20045;-70
2021/11/13 08:34:52;;;;;;;37.92;18.10;;;4.70;99.90;;;;;;5058913;28;20032;-70
2021/11/13 08:37:17;;;;;;;37.40;15.88;;;4.80;99.90;;;;;;5058355;28;20059;-70
2021/11/13 08:39:43;;;;;;;37.85;17.48;;;4.80;99.90;;;;;;5058293;28;20105;-69
2021/11/13 08:42:11;;;;;;;34.70;16.27;;;4.80;99.90;;;;;;5058381;28;20543;-70
2021/11/13 08:44:37;;;;;;;41.53;18.85;;;4.80;99.90;;;;;;5058148;28;20036;-69
2021/11/13 08:47:02;;;;;;;37.85;16.48;;;4.80;99.90;;;;;;5039314;28;20036;-69
2021/11/13 08:49:28;;;;;;;34.55;16.05;;;4.90;99.90;;;;;;5057290;28;20827;-69
2021/11/13 08:51:53;;;;;;;34.28;15.82;;;4.80;99.90;;;;;;5034252;28;20033;-69
2021/11/13 08:54:19;;;;;;;35.95;15.95;;;5.00;99.90;;;;;;5036844;28;20538;-69
2021/11/13 08:56:45;;;;;;;32.20;15.55;;;5.10;99.90;;;;;;5057963;28;20115;-69
2021/11/13 08:59:10;;;;;;;34.08;15.88;;;5.20;99.90;;;;;;5057817;28;20055;-69
2021/11/13 09:01:36;;;;;;;33.90;16.85;;;5.30;99.90;;;;;;5056871;28;20048;-69
2021/11/13 09:04:02;;;;;;;37.33;16.42;;;5.40;99.90;;;;;;5039857;28;20860;-69
2021/11/13 09:06:30;;;;;;;32.78;16.08;;;5.60;99.90;;;;;;5058697;28;20107;-69
2021/11/13 09:08:56;;;;;;;50.33;24.60;;;5.70;99.90;;;;;;5045351;28;20043;-68
2021/11/13 09:11:22;;;;;;;37.42;17.52;;;5.80;99.90;;;;;;5023782;28;20032;-68
2021/11/13 09:13:47;;;;;;;37.22;18.05;;;5.90;99.90;;;;;;5061008;28;20109;-70
2021/11/13 09:16:13;;;;;;;31.08;14.85;;;6.20;99.90;;;;;;5060611;28;20032;-70
2021/11/13 09:18:42;;;;;;;29.67;14.70;;;6.30;99.90;;;;;;5059768;28;20668;-70
2021/11/13 09:21:08;;;;;;;28.15;14.40;;;6.50;99.90;;;;;;5058666;28;20044;-70
2021/11/13 09:23:33;;;;;;;25.42;13.20;;;6.70;99.90;;;;;;5057472;28;20040;-70
2021/11/13 09:25:59;;;;;;;32.90;15.45;;;6.60;99.90;;;;;;5059118;28;20036;-70
2021/11/13 09:28:24;;;;;;;27.02;13.75;;;6.70;99.90;;;;;;5037610;28;20047;-70
2021/11/13 09:30:50;;;;;;;25.73;13.63;;;6.70;99.90;;;;;;5058609;28;20040;-70
2021/11/13 09:33:15;;;;;;;25.58;13.40;;;6.70;99.90;;;;;;5039098;28;20555;-69
2021/11/13 09:35:40;;;;;;;25.73;13.55;;;6.70;99.90;;;;;;5039279;28;20032;-69
2021/11/13 09:38:06;;;;;;;25.08;13.23;;;6.70;99.90;;;;;;5039124;28;20045;-69
2021/11/13 09:40:31;;;;;;;23.42;12.93;;;6.60;99.90;;;;;;5055349;28;20075;-69
2021/11/13 09:42:57;;;;;;;26.58;13.98;;;6.60;99.90;;;;;;5057404;28;20548;-69
2021/11/13 09:45:22;;;;;;;25.23;12.68;;;6.70;99.90;;;;;;5057244;28;20036;-69
2021/11/13 09:47:48;;;;;;;23.35;12.88;;;6.60;99.90;;;;;;5056994;28;20040;-69
2021/11/13 09:50:13;;;;;;;24.95;13.23;;;6.60;99.90;;;;;;5058548;28;20415;-69
2021/11/13 09:52:39;;;;;;;26.08;12.18;;;6.70;99.90;;;;;;5058554;28;20136;-68
2021/11/13 09:55:04;;;;;;;25.63;12.40;;;6.60;99.90;;;;;;5058212;28;20048;-68
2021/11/13 09:57:30;;;;;;;23.48;11.55;;;6.70;99.90;;;;;;5058829;28;20085;-69
2021/11/13 09:59:56;;;;;;;23.27;12.40;;;6.70;99.90;;;;;;5041234;28;20036;-71
2021/11/13 10:02:21;;;;;;;25.95;12.48;;;6.70;99.90;;;;;;5059165;28;20043;-72
2021/11/13 10:04:46;;;;;;;24.88;12.02;;;6.70;99.90;;;;;;5059095;28;20834;-69
2021/11/13 10:07:12;;;;;;;23.42;12.20;;;6.70;99.90;;;;;;5058237;28;20055;-69
2021/11/13 10:09:37;;;;;;;23.38;12.10;;;6.60;99.90;;;;;;5057782;28;20032;-69
2021/11/13 10:12:03;;;;;;;24.50;12.35;;;6.50;99.90;;;;;;5058081;28;20036;-69
2021/11/13 10:14:28;;;;;;;25.60;12.00;;;6.50;99.90;;;;;;5057478;28;20039;-69
2021/11/13 10:16:54;;;;;;;23.75;12.00;;;6.60;99.90;;;;;;5056405;28;20024;-69
2021/11/13 10:19:19;;;;;;;21.77;11.68;;;6.60;99.90;;;;;;5040120;28;20998;-69
2021/11/13 10:21:45;;;;;;;24.17;12.20;;;6.60;99.90;;;;;;5058192;28;20033;-69
2021/11/13 10:24:10;;;;;;;23.02;11.68;;;6.50;99.90;;;;;;5038034;28;20582;-69
2021/11/13 10:26:36;;;;;;;22.52;11.57;;;6.70;99.90;;;;;;5033550;28;20089;-69
2021/11/13 10:29:02;;;;;;;24.38;12.48;;;6.50;99.90;;;;;;5036409;28;20040;-69
2021/11/13 10:31:28;;;;;;;22.88;12.05;;;6.60;99.90;;;;;;5057330;28;20036;-69
2021/11/13 10:33:53;;;;;;;23.50;12.23;;;6.60;99.90;;;;;;5039689;28;20032;-69
2021/11/13 10:36:19;;;;;;;23.50;12.38;;;6.70;99.90;;;;;;5035010;28;20388;-69
2021/11/13 10:38:48;;;;;;;23.95;12.15;;;6.80;99.90;;;;;;5038378;28;20029;-69
2021/11/13 10:41:13;;;;;;;22.52;11.68;;;7.00;99.90;;;;;;5057168;28;20044;-72
2021/11/13 10:43:39;;;;;;;24.33;12.63;;;7.10;99.90;;;;;;5039250;28;20043;-70
2021/11/13 10:46:04;;;;;;;25.52;12.48;;;7.20;99.90;;;;;;5038614;28;20040;-71
2021/11/13 10:48:30;;;;;;;22.77;12.23;;;7.20;99.90;;;;;;5056432;28;20616;-69
2021/11/13 10:50:55;;;;;;;20.00;10.98;;;7.20;99.90;;;;;;5057328;28;20036;-69
2021/11/13 10:53:21;;;;;;;23.92;11.98;;;7.20;99.90;;;;;;5037687;28;20124;-69
2021/11/13 10:55:46;;;;;;;22.45;11.13;;;7.20;99.90;;;;;;5036996;28;20028;-69
2021/11/13 10:58:12;;;;;;;22.10;11.38;;;7.40;99.90;;;;;;5054377;28;20078;-68
2021/11/13 11:00:37;;;;;;;21.00;10.98;;;7.50;99.90;;;;;;5037686;28;20482;-69
2021/11/13 11:03:03;;;;;;;24.70;12.07;;;7.40;99.90;;;;;;5056266;28;20040;-70
2021/11/13 11:05:28;;;;;;;25.30;12.70;;;7.60;99.90;;;;;;5058040;28;20044;-68
2021/11/13 11:07:54;;;;;;;19.45;10.25;;;7.80;99.90;;;;;;5056143;28;20036;-69
2021/11/13 11:10:21;;;;;;;18.42;10.05;;;8.00;99.90;;;;;;5057111;28;20032;-70
2021/11/13 11:12:46;;;;;;;17.42;10.10;;;8.20;99.90;;;;;;5056640;28;20041;-70
2021/11/13 11:15:12;;;;;;;16.67;10.05;;;8.30;99.90;;;;;;5056624;28;20080;-70
2021/11/13 11:17:37;;;;;;;19.33;10.68;;;8.30;99.90;;;;;;5036719;28;20145;-70
2021/11/13 11:20:03;;;;;;;18.63;10.60;;;8.40;99.90;;;;;;5060338;28;20685;-70
2021/11/13 11:22:28;;;;;;;17.77;10.00;;;8.50;99.90;;;;;;5057238;28;20041;-70
2021/11/13 11:24:54;;;;;;;19.48;9.38;;;8.90;99.90;;;;;;5053958;28;20049;-71
2021/11/13 11:27:19;;;;;;;14.93;9.30;;;8.80;99.90;;;;;;5055201;28;20568;-70
2021/11/13 11:29:45;;;;;;;18.17;10.20;;;8.80;99.90;;;;;;5056092;28;20036;-70
2021/11/13 11:32:14;;;;;;;17.23;9.30;;;9.00;99.90;;;;;;5055267;28;20144;-70
2021/11/13 11:34:40;;;;;;;18.90;10.18;;;9.00;99.90;;;;;;5056729;28;20028;-70
2021/11/13 11:37:05;;;;;;;18.75;9.50;;;9.10;99.90;;;;;;5034019;28;20052;-71
2021/11/13 11:39:31;;;;;;;17.60;9.27;;;9.40;99.90;;;;;;5055026;28;20051;-63
2021/11/13 11:41:57;;;;;;;16.83;9.23;;;9.30;99.90;;;;;;5056393;28;20731;-63
2021/11/13 11:44:22;;;;;;;17.75;10.27;;;9.00;99.90;;;;;;5056497;28;20036;-64
2021/11/13 11:46:48;;;;;;;16.85;10.15;;;8.80;99.90;;;;;;5055315;28;20039;-63
2021/11/13 11:49:13;;;;;;;20.10;10.93;;;8.80;99.90;;;;;;5055511;28;20040;-63
2021/11/13 11:51:39;;;;;;;21.95;10.02;;;8.80;99.90;;;;;;5055294;28;20029;-63
2021/11/13 11:54:04;;;;;;;18.08;9.98;;;8.90;99.90;;;;;;5062551;28;20189;-63
2021/11/13 11:56:30;;;;;;;15.38;9.43;;;9.30;99.90;;;;;;5055652;28;20032;-63
2021/11/13 11:58:55;;;;;;;16.30;9.43;;;9.60;99.90;;;;;;5055250;28;20811;-64
2021/11/13 12:01:21;;;;;;;20.90;10.32;;;9.90;99.90;;;;;;5056053;28;20109;-63
2021/11/13 12:03:46;;;;;;;17.85;10.27;;;10.10;99.90;;;;;;5056280;28;20113;-63
2021/11/13 12:06:12;;;;;;;15.80;9.73;;;;;;;;;;5059450;28;20032;-63
2021/11/13 12:08:39;;;;;;;18.92;9.30;;;;;;;;;;5058864;28;20032;-63
2021/11/13 12:11:04;;;;;;;17.20;9.07;;;10.20;99.90;;;;;;5057985;28;20040;-63
2021/11/13 12:13:30;;;;;;;17.55;9.40;;;10.50;99.90;;;;;;5059629;28;20060;-63
2021/11/13 12:15:55;;;;;;;23.42;11.60;;;9.90;99.90;;;;;;5059493;28;20036;-63
2021/11/13 12:18:21;;;;;;;15.40;9.07;;;9.80;99.90;;;;;;5037343;28;20036;-63
2021/11/13 12:20:46;;;;;;;18.25;9.27;;;10.00;99.90;;;;;;5039954;28;20858;-65
2021/11/13 12:23:14;;;;;;;20.00;9.30;;;10.30;99.90;;;;;;5058537;28;20038;-63
2021/11/13 12:25:39;;;;;;;13.50;7.82;;;10.30;99.90;;;;;;5059264;28;20032;-64
2021/11/13 12:28:05;;;;;;;17.67;8.80;;;10.20;99.90;;;;;;5058948;28;20486;-64